sensor_id;sensor_type;location;lat;lon;timestamp;temperature;humidity
35240;DHT22;21376;50.954;4.716;2023-07-13T00:01:10;16.10;99.90
35240;DHT22;21376;50.954;4.716;2023-07-13T00:03:39;16.00;99.90
35240;DHT22;21376;50.954;4.716;2023-07-13T00:06:23;16.00;99.90
35240;DHT22;21376;50.954;4.716;2023-07-13T00:11:21;15.90;99.90
35240;DHT22;21376;50.954;4.716;2023-07-13T00:13:47;15.90;99.90
35240;DHT22;21376;50.954;4.716;2023-07-13T00:16:15;15.90;99.90
35240;DHT22;21376;50.954;4.716;2023-07-13T00:18:42;15.80;99.90
35240;DHT22;21376;50.954;4.716;2023-07-13T00:21:14;15.80;99.90
35240;DHT22;21376;50.954;4.716;2023-07-13T00:23:45;15.70;99.90
35240;DHT22;21376;50.954;4.716;2023-07-13T00:26:15;15.80;99.90
35240;DHT22;21376;50.954;4.716;2023-07-13T00:28:43;15.70;99.90
35240;DHT22;21376;50.954;4.716;2023-07-13T00:31:12;15.70;99.90
35240;DHT22;21376;50.954;4.716;2023-07-13T00:33:40;15.80;99.90
35240;DHT22;21376;50.954;4.716;2023-07-13T00:36:06;15.70;99.90
35240;DHT22;21376;50.954;4.716;2023-07-13T00:38:31;15.80;99.90
35240;DHT22;21376;50.954;4.716;2023-07-13T00:40:57;15.80;99.90
35240;DHT22;21376;50.954;4.716;2023-07-13T00:43:27;15.70;99.90
35240;DHT22;21376;50.954;4.716;2023-07-13T00:48:29;15.80;99.90
35240;DHT22;21376;50.954;4.716;2023-07-13T00:51:01;15.70;99.90
35240;DHT22;21376;50.954;4.716;2023-07-13T00:53:30;15.70;99.90
35240;DHT22;21376;50.954;4.716;2023-07-13T00:58:29;15.50;99.90
35240;DHT22;21376;50.954;4.716;2023-07-13T01:00:56;15.70;99.90
35240;DHT22;21376;50.954;4.716;2023-07-13T01:03:24;15.60;99.90
35240;DHT22;21376;50.954;4.716;2023-07-13T01:05:53;15.30;99.90
35240;DHT22;21376;50.954;4.716;2023-07-13T01:08:22;15.20;99.90
35240;DHT22;21376;50.954;4.716;2023-07-13T01:11:04;15.20;99.90
35240;DHT22;21376;50.954;4.716;2023-07-13T01:13:36;15.10;99.90
35240;DHT22;21376;50.954;4.716;2023-07-13T01:16:04;15.00;99.90
35240;DHT22;21376;50.954;4.716;2023-07-13T01:23:46;14.80;99.90
35240;DHT22;21376;50.954;4.716;2023-07-13T01:31:08;14.70;99.90
35240;DHT22;21376;50.954;4.716;2023-07-13T01:33:37;14.70;99.90
35240;DHT22;21376;50.954;4.716;2023-07-13T01:36:06;14.90;99.90
35240;DHT22;21376;50.954;4.716;2023-07-13T01:38:35;14.90;99.90
35240;DHT22;21376;50.954;4.716;2023-07-13T01:41:13;14.90;99.90
35240;DHT22;21376;50.954;4.716;2023-07-13T01:43:39;14.80;99.90
35240;DHT22;21376;50.954;4.716;2023-07-13T01:46:06;14.80;99.90
35240;DHT22;21376;50.954;4.716;2023-07-13T01:48:35;14.70;99.90
35240;DHT22;21376;50.954;4.716;2023-07-13T01:51:02;14.70;99.90
35240;DHT22;21376;50.954;4.716;2023-07-13T01:53:31;14.80;99.90
35240;DHT22;21376;50.954;4.716;2023-07-13T01:55:57;14.90;99.90
35240;DHT22;21376;50.954;4.716;2023-07-13T01:58:26;14.80;99.90
35240;DHT22;21376;50.954;4.716;2023-07-13T02:03:20;14.80;99.90
35240;DHT22;21376;50.954;4.716;2023-07-13T02:05:51;14.70;99.90
35240;DHT22;21376;50.954;4.716;2023-07-13T02:10:47;14.60;99.90
35240;DHT22;21376;50.954;4.716;2023-07-13T02:16:02;14.70;99.90
35240;DHT22;21376;50.954;4.716;2023-07-13T02:18:31;14.80;99.90
35240;DHT22;21376;50.954;4.716;2023-07-13T02:21:00;14.90;99.90
35240;DHT22;21376;50.954;4.716;2023-07-13T02:23:27;15.00;99.90
35240;DHT22;21376;50.954;4.716;2023-07-13T02:26:04;15.00;99.90
35240;DHT22;21376;50.954;4.716;2023-07-13T02:28:33;15.10;99.90
35240;DHT22;21376;50.954;4.716;2023-07-13T02:31:09;15.30;99.90
35240;DHT22;21376;50.954;4.716;2023-07-13T02:33:49;15.30;99.90
35240;DHT22;21376;50.954;4.716;2023-07-13T02:36:20;15.40;99.90
35240;DHT22;21376;50.954;4.716;2023-07-13T02:38:50;15.50;99.90
35240;DHT22;21376;50.954;4.716;2023-07-13T02:41:18;15.40;99.90
35240;DHT22;21376;50.954;4.716;2023-07-13T02:43:47;15.40;99.90
35240;DHT22;21376;50.954;4.716;2023-07-13T02:46:16;15.30;99.90
35240;DHT22;21376;50.954;4.716;2023-07-13T02:48:42;15.40;99.90
35240;DHT22;21376;50.954;4.716;2023-07-13T02:51:09;15.50;99.90
35240;DHT22;21376;50.954;4.716;2023-07-13T02:53:38;15.60;99.90
35240;DHT22;21376;50.954;4.716;2023-07-13T02:56:18;15.60;99.90
35240;DHT22;21376;50.954;4.716;2023-07-13T02:58:47;15.50;99.90
35240;DHT22;21376;50.954;4.716;2023-07-13T03:01:13;15.40;99.90
35240;DHT22;21376;50.954;4.716;2023-07-13T03:03:47;15.50;99.90
35240;DHT22;21376;50.954;4.716;2023-07-13T03:06:15;15.50;99.90
35240;DHT22;21376;50.954;4.716;2023-07-13T03:08:43;15.60;99.90
35240;DHT22;21376;50.954;4.716;2023-07-13T03:11:15;15.60;99.90
35240;DHT22;21376;50.954;4.716;2023-07-13T03:13:41;15.50;99.90
35240;DHT22;21376;50.954;4.716;2023-07-13T03:16:09;15.50;99.90
35240;DHT22;21376;50.954;4.716;2023-07-13T03:21:23;15.70;99.90
35240;DHT22;21376;50.954;4.716;2023-07-13T03:23:52;15.80;99.90
35240;DHT22;21376;50.954;4.716;2023-07-13T03:26:19;15.80;99.90
35240;DHT22;21376;50.954;4.716;2023-07-13T03:28:46;15.80;99.90
35240;DHT22;21376;50.954;4.716;2023-07-13T03:31:13;15.80;99.90
35240;DHT22;21376;50.954;4.716;2023-07-13T03:33:39;15.60;99.90
35240;DHT22;21376;50.954;4.716;2023-07-13T03:36:06;15.60;99.90
35240;DHT22;21376;50.954;4.716;2023-07-13T03:38:31;15.60;99.90
35240;DHT22;21376;50.954;4.716;2023-07-13T03:40:58;15.70;99.90
35240;DHT22;21376;50.954;4.716;2023-07-13T03:45:57;15.50;99.90
35240;DHT22;21376;50.954;4.716;2023-07-13T03:48:25;15.60;99.90
35240;DHT22;21376;50.954;4.716;2023-07-13T03:50:50;15.40;99.90
35240;DHT22;21376;50.954;4.716;2023-07-13T03:53:19;15.40;99.90
35240;DHT22;21376;50.954;4.716;2023-07-13T03:55:47;15.60;99.90
35240;DHT22;21376;50.954;4.716;2023-07-13T04:01:02;15.80;99.90
35240;DHT22;21376;50.954;4.716;2023-07-13T04:05:59;15.90;99.90
35240;DHT22;21376;50.954;4.716;2023-07-13T04:08:29;16.00;99.90
35240;DHT22;21376;50.954;4.716;2023-07-13T04:10:56;16.00;99.90
35240;DHT22;21376;50.954;4.716;2023-07-13T04:15:54;15.90;99.90
35240;DHT22;21376;50.954;4.716;2023-07-13T04:18:20;15.80;99.90
35240;DHT22;21376;50.954;4.716;2023-07-13T04:20:49;15.80;99.90
35240;DHT22;21376;50.954;4.716;2023-07-13T04:23:15;15.90;99.90
35240;DHT22;21376;50.954;4.716;2023-07-13T04:25:52;16.10;99.90
35240;DHT22;21376;50.954;4.716;2023-07-13T04:28:22;15.90;99.90
35240;DHT22;21376;50.954;4.716;2023-07-13T04:30:48;16.00;99.90
35240;DHT22;21376;50.954;4.716;2023-07-13T04:33:17;15.90;99.90
35240;DHT22;21376;50.954;4.716;2023-07-13T04:38:23;16.10;99.90
35240;DHT22;21376;50.954;4.716;2023-07-13T04:40:50;16.00;99.90
35240;DHT22;21376;50.954;4.716;2023-07-13T04:45:50;16.20;99.90
35240;DHT22;21376;50.954;4.716;2023-07-13T04:48:18;16.30;99.90
35240;DHT22;21376;50.954;4.716;2023-07-13T04:50:44;16.40;99.90
35240;DHT22;21376;50.954;4.716;2023-07-13T04:53:09;16.60;99.90
35240;DHT22;21376;50.954;4.716;2023-07-13T04:55:37;16.50;99.90
35240;DHT22;21376;50.954;4.716;2023-07-13T04:58:04;16.60;99.90
35240;DHT22;21376;50.954;4.716;2023-07-13T05:00:32;16.50;99.90
35240;DHT22;21376;50.954;4.716;2023-07-13T05:02:58;16.40;99.90
35240;DHT22;21376;50.954;4.716;2023-07-13T05:08:08;16.50;99.90
35240;DHT22;21376;50.954;4.716;2023-07-13T05:10:49;16.60;99.90
35240;DHT22;21376;50.954;4.716;2023-07-13T05:13:15;16.50;99.90
35240;DHT22;21376;50.954;4.716;2023-07-13T05:15:45;16.80;99.90
35240;DHT22;21376;50.954;4.716;2023-07-13T05:20:42;16.80;99.90
35240;DHT22;21376;50.954;4.716;2023-07-13T05:23:09;16.90;99.90
35240;DHT22;21376;50.954;4.716;2023-07-13T05:25:37;16.90;99.90
35240;DHT22;21376;50.954;4.716;2023-07-13T05:28:03;16.90;99.90
35240;DHT22;21376;50.954;4.716;2023-07-13T05:33:17;17.00;99.90
35240;DHT22;21376;50.954;4.716;2023-07-13T05:35:44;17.10;99.90
35240;DHT22;21376;50.954;4.716;2023-07-13T05:38:10;17.20;99.90
35240;DHT22;21376;50.954;4.716;2023-07-13T05:40:35;17.40;99.90
35240;DHT22;21376;50.954;4.716;2023-07-13T05:43:01;17.50;99.90
35240;DHT22;21376;50.954;4.716;2023-07-13T05:45:30;17.40;99.90
35240;DHT22;21376;50.954;4.716;2023-07-13T05:50:27;17.50;99.90
35240;DHT22;21376;50.954;4.716;2023-07-13T05:55:25;17.60;99.90
35240;DHT22;21376;50.954;4.716;2023-07-13T05:57:50;17.80;99.90
35240;DHT22;21376;50.954;4.716;2023-07-13T06:00:16;17.90;99.90
35240;DHT22;21376;50.954;4.716;2023-07-13T06:02:45;18.00;99.90
35240;DHT22;21376;50.954;4.716;2023-07-13T06:05:14;18.10;99.90
35240;DHT22;21376;50.954;4.716;2023-07-13T06:07:40;18.00;99.90
35240;DHT22;21376;50.954;4.716;2023-07-13T06:10:09;18.30;99.90
35240;DHT22;21376;50.954;4.716;2023-07-13T06:12:41;18.50;99.90
35240;DHT22;21376;50.954;4.716;2023-07-13T06:15:07;18.50;99.90
35240;DHT22;21376;50.954;4.716;2023-07-13T06:17:34;18.40;99.90
35240;DHT22;21376;50.954;4.716;2023-07-13T06:20:01;18.40;99.90
35240;DHT22;21376;50.954;4.716;2023-07-13T06:22:30;18.50;99.90
35240;DHT22;21376;50.954;4.716;2023-07-13T06:27:27;18.70;99.90
35240;DHT22;21376;50.954;4.716;2023-07-13T06:29:56;19.00;99.90
35240;DHT22;21376;50.954;4.716;2023-07-13T06:32:36;18.70;99.90
35240;DHT22;21376;50.954;4.716;2023-07-13T06:35:03;18.70;99.90
35240;DHT22;21376;50.954;4.716;2023-07-13T06:42:20;18.90;99.90
35240;DHT22;21376;50.954;4.716;2023-07-13T06:44:49;18.90;99.90
35240;DHT22;21376;50.954;4.716;2023-07-13T06:50:15;19.10;99.90
35240;DHT22;21376;50.954;4.716;2023-07-13T06:52:43;19.50;99.90
35240;DHT22;21376;50.954;4.716;2023-07-13T06:55:12;19.90;99.90
35240;DHT22;21376;50.954;4.716;2023-07-13T07:00:07;19.70;99.90
35240;DHT22;21376;50.954;4.716;2023-07-13T07:08:21;21.00;99.90
35240;DHT22;21376;50.954;4.716;2023-07-13T07:10:51;21.10;99.90
35240;DHT22;21376;50.954;4.716;2023-07-13T07:15:49;21.40;99.90
35240;DHT22;21376;50.954;4.716;2023-07-13T07:23:23;22.00;99.90
35240;DHT22;21376;50.954;4.716;2023-07-13T07:31:21;22.60;99.90
35240;DHT22;21376;50.954;4.716;2023-07-13T07:33:48;23.10;99.90
35240;DHT22;21376;50.954;4.716;2023-07-13T07:38:44;23.20;99.90
35240;DHT22;21376;50.954;4.716;2023-07-13T07:41:10;22.90;99.90
35240;DHT22;21376;50.954;4.716;2023-07-13T07:43:39;22.30;99.90
35240;DHT22;21376;50.954;4.716;2023-07-13T07:46:07;22.10;99.90
35240;DHT22;21376;50.954;4.716;2023-07-13T07:48:34;22.40;99.90
35240;DHT22;21376;50.954;4.716;2023-07-13T07:53:30;22.50;99.90
35240;DHT22;21376;50.954;4.716;2023-07-13T07:55:59;23.20;99.90
35240;DHT22;21376;50.954;4.716;2023-07-13T07:58:28;24.30;99.90
35240;DHT22;21376;50.954;4.716;2023-07-13T08:01:03;24.40;99.90
35240;DHT22;21376;50.954;4.716;2023-07-13T08:03:48;24.30;99.90
35240;DHT22;21376;50.954;4.716;2023-07-13T08:06:17;24.70;99.90
35240;DHT22;21376;50.954;4.716;2023-07-13T08:13:43;26.80;99.90
35240;DHT22;21376;50.954;4.716;2023-07-13T08:16:12;27.40;99.90
35240;DHT22;21376;50.954;4.716;2023-07-13T08:21:32;30.00;99.90
35240;DHT22;21376;50.954;4.716;2023-07-13T08:24:01;29.70;99.90
35240;DHT22;21376;50.954;4.716;2023-07-13T08:28:58;28.80;99.90
35240;DHT22;21376;50.954;4.716;2023-07-13T08:31:25;29.50;99.90
35240;DHT22;21376;50.954;4.716;2023-07-13T08:34:01;30.60;99.90
35240;DHT22;21376;50.954;4.716;2023-07-13T08:39:32;29.50;99.90
35240;DHT22;21376;50.954;4.716;2023-07-13T08:42:01;27.60;99.90
35240;DHT22;21376;50.954;4.716;2023-07-13T08:44:40;28.30;99.90
35240;DHT22;21376;50.954;4.716;2023-07-13T08:47:14;29.00;99.90
35240;DHT22;21376;50.954;4.716;2023-07-13T08:52:41;27.30;99.90
35240;DHT22;21376;50.954;4.716;2023-07-13T08:55:18;25.40;99.90
35240;DHT22;21376;50.954;4.716;2023-07-13T08:57:53;24.60;99.90
35240;DHT22;21376;50.954;4.716;2023-07-13T09:02:53;24.40;99.90
35240;DHT22;21376;50.954;4.716;2023-07-13T09:08:09;24.50;99.90
35240;DHT22;21376;50.954;4.716;2023-07-13T09:10:53;27.60;99.90
35240;DHT22;21376;50.954;4.716;2023-07-13T09:13:27;26.80;99.90
35240;DHT22;21376;50.954;4.716;2023-07-13T09:15:55;25.40;99.90
35240;DHT22;21376;50.954;4.716;2023-07-13T09:21:00;29.80;99.90
35240;DHT22;21376;50.954;4.716;2023-07-13T09:23:29;31.50;99.60
35240;DHT22;21376;50.954;4.716;2023-07-13T09:26:06;31.90;97.40
35240;DHT22;21376;50.954;4.716;2023-07-13T09:28:41;32.70;98.90
35240;DHT22;21376;50.954;4.716;2023-07-13T09:31:13;34.40;93.00
35240;DHT22;21376;50.954;4.716;2023-07-13T09:33:39;34.50;93.60
35240;DHT22;21376;50.954;4.716;2023-07-13T09:36:27;35.60;92.90
35240;DHT22;21376;50.954;4.716;2023-07-13T09:41:23;31.50;93.20
35240;DHT22;21376;50.954;4.716;2023-07-13T09:44:01;31.10;94.60
35240;DHT22;21376;50.954;4.716;2023-07-13T09:46:28;31.60;94.80
35240;DHT22;21376;50.954;4.716;2023-07-13T09:48:55;33.20;92.50
35240;DHT22;21376;50.954;4.716;2023-07-13T09:53:53;31.80;91.00
35240;DHT22;21376;50.954;4.716;2023-07-13T09:56:26;31.00;92.30
35240;DHT22;21376;50.954;4.716;2023-07-13T09:58:52;31.00;92.90
35240;DHT22;21376;50.954;4.716;2023-07-13T10:01:31;30.10;92.90
35240;DHT22;21376;50.954;4.716;2023-07-13T10:04:00;28.60;94.50
35240;DHT22;21376;50.954;4.716;2023-07-13T10:06:26;27.30;96.00
35240;DHT22;21376;50.954;4.716;2023-07-13T10:08:52;27.00;96.70
35240;DHT22;21376;50.954;4.716;2023-07-13T10:11:27;26.10;97.90
35240;DHT22;21376;50.954;4.716;2023-07-13T10:13:55;25.80;99.70
35240;DHT22;21376;50.954;4.716;2023-07-13T10:16:22;26.50;99.00
35240;DHT22;21376;50.954;4.716;2023-07-13T10:19:12;27.20;97.20
35240;DHT22;21376;50.954;4.716;2023-07-13T10:21:55;30.10;97.70
35240;DHT22;21376;50.954;4.716;2023-07-13T10:27:32;31.40;92.10
35240;DHT22;21376;50.954;4.716;2023-07-13T10:30:17;31.20;92.10
35240;DHT22;21376;50.954;4.716;2023-07-13T10:35:37;29.20;93.60
35240;DHT22;21376;50.954;4.716;2023-07-13T10:38:07;28.80;97.10
35240;DHT22;21376;50.954;4.716;2023-07-13T10:40:37;30.20;93.20
35240;DHT22;21376;50.954;4.716;2023-07-13T10:43:04;31.10;92.20
35240;DHT22;21376;50.954;4.716;2023-07-13T10:45:33;31.20;91.50
35240;DHT22;21376;50.954;4.716;2023-07-13T10:48:00;30.60;92.50
35240;DHT22;21376;50.954;4.716;2023-07-13T10:50:27;30.70;93.60
35240;DHT22;21376;50.954;4.716;2023-07-13T10:52:54;29.70;93.10
35240;DHT22;21376;50.954;4.716;2023-07-13T10:58:19;27.70;95.50
35240;DHT22;21376;50.954;4.716;2023-07-13T11:00:47;29.30;95.20
35240;DHT22;21376;50.954;4.716;2023-07-13T11:03:16;30.20;92.70
35240;DHT22;21376;50.954;4.716;2023-07-13T11:05:43;29.00;92.40
35240;DHT22;21376;50.954;4.716;2023-07-13T11:08:31;28.20;93.50
35240;DHT22;21376;50.954;4.716;2023-07-13T11:13:58;27.50;94.10
35240;DHT22;21376;50.954;4.716;2023-07-13T11:24:52;27.20;94.90
35240;DHT22;21376;50.954;4.716;2023-07-13T11:30:08;28.20;93.70
35240;DHT22;21376;50.954;4.716;2023-07-13T11:32:37;27.10;94.90
35240;DHT22;21376;50.954;4.716;2023-07-13T11:35:04;26.00;96.50
35240;DHT22;21376;50.954;4.716;2023-07-13T11:37:32;25.20;98.20
35240;DHT22;21376;50.954;4.716;2023-07-13T11:42:26;24.50;99.90
35240;DHT22;21376;50.954;4.716;2023-07-13T11:44:54;24.70;99.90
35240;DHT22;21376;50.954;4.716;2023-07-13T11:47:24;24.80;99.90
35240;DHT22;21376;50.954;4.716;2023-07-13T11:49:54;25.30;99.90
35240;DHT22;21376;50.954;4.716;2023-07-13T11:52:28;26.00;99.90
35240;DHT22;21376;50.954;4.716;2023-07-13T11:54:57;25.70;99.90
35240;DHT22;21376;50.954;4.716;2023-07-13T11:57:28;25.80;99.90
35240;DHT22;21376;50.954;4.716;2023-07-13T11:59:56;25.70;99.30
35240;DHT22;21376;50.954;4.716;2023-07-13T12:02:36;25.70;99.70
35240;DHT22;21376;50.954;4.716;2023-07-13T12:05:05;26.20;98.50
35240;DHT22;21376;50.954;4.716;2023-07-13T12:07:32;26.20;99.10
35240;DHT22;21376;50.954;4.716;2023-07-13T12:17:35;25.00;99.90
35240;DHT22;21376;50.954;4.716;2023-07-13T12:20:13;24.20;99.90
35240;DHT22;21376;50.954;4.716;2023-07-13T12:22:45;24.00;99.90
35240;DHT22;21376;50.954;4.716;2023-07-13T12:25:14;23.80;99.90
35240;DHT22;21376;50.954;4.716;2023-07-13T12:27:48;23.40;99.90
35240;DHT22;21376;50.954;4.716;2023-07-13T12:33:12;22.50;99.90
35240;DHT22;21376;50.954;4.716;2023-07-13T12:38:18;22.90;99.90
35240;DHT22;21376;50.954;4.716;2023-07-13T12:40:46;23.40;99.90
35240;DHT22;21376;50.954;4.716;2023-07-13T12:43:14;23.60;99.90
35240;DHT22;21376;50.954;4.716;2023-07-13T12:48:21;23.40;99.90
35240;DHT22;21376;50.954;4.716;2023-07-13T12:50:49;23.00;99.90
35240;DHT22;21376;50.954;4.716;2023-07-13T12:53:19;22.50;99.90
35240;DHT22;21376;50.954;4.716;2023-07-13T12:55:53;22.20;99.90
35240;DHT22;21376;50.954;4.716;2023-07-13T13:03:54;21.90;99.90
35240;DHT22;21376;50.954;4.716;2023-07-13T13:06:25;21.80;99.90
35240;DHT22;21376;50.954;4.716;2023-07-13T13:08:56;22.00;99.90
35240;DHT22;21376;50.954;4.716;2023-07-13T13:14:16;21.30;99.90
35240;DHT22;21376;50.954;4.716;2023-07-13T13:19:37;20.40;99.90
35240;DHT22;21376;50.954;4.716;2023-07-13T13:24:49;19.80;99.90
35240;DHT22;21376;50.954;4.716;2023-07-13T13:29:46;19.60;99.90
35240;DHT22;21376;50.954;4.716;2023-07-13T13:32:12;19.70;99.90
35240;DHT22;21376;50.954;4.716;2023-07-13T13:34:40;19.80;99.90
35240;DHT22;21376;50.954;4.716;2023-07-13T13:37:20;19.90;99.90
35240;DHT22;21376;50.954;4.716;2023-07-13T13:39:46;20.20;99.90
35240;DHT22;21376;50.954;4.716;2023-07-13T13:42:15;20.60;99.90
35240;DHT22;21376;50.954;4.716;2023-07-13T13:44:55;21.00;99.90
35240;DHT22;21376;50.954;4.716;2023-07-13T13:47:36;21.20;99.90
35240;DHT22;21376;50.954;4.716;2023-07-13T13:50:13;21.70;99.90
35240;DHT22;21376;50.954;4.716;2023-07-13T13:52:45;21.80;99.90
35240;DHT22;21376;50.954;4.716;2023-07-13T14:00:20;22.30;99.90
35240;DHT22;21376;50.954;4.716;2023-07-13T14:02:48;22.50;99.90
35240;DHT22;21376;50.954;4.716;2023-07-13T14:05:24;22.70;99.90
35240;DHT22;21376;50.954;4.716;2023-07-13T14:08:00;22.40;99.90
35240;DHT22;21376;50.954;4.716;2023-07-13T14:12:58;22.40;99.90
35240;DHT22;21376;50.954;4.716;2023-07-13T14:18:21;22.70;99.90
35240;DHT22;21376;50.954;4.716;2023-07-13T14:20:50;23.10;99.90
35240;DHT22;21376;50.954;4.716;2023-07-13T14:23:20;23.80;99.90
35240;DHT22;21376;50.954;4.716;2023-07-13T14:25:49;24.40;99.90
35240;DHT22;21376;50.954;4.716;2023-07-13T14:28:19;25.10;99.90
35240;DHT22;21376;50.954;4.716;2023-07-13T14:30:46;25.40;99.90
35240;DHT22;21376;50.954;4.716;2023-07-13T14:33:30;25.70;99.90
35240;DHT22;21376;50.954;4.716;2023-07-13T14:35:56;25.40;99.90
35240;DHT22;21376;50.954;4.716;2023-07-13T14:41:25;25.40;99.90
35240;DHT22;21376;50.954;4.716;2023-07-13T14:43:54;25.50;99.90
35240;DHT22;21376;50.954;4.716;2023-07-13T14:46:28;25.30;99.90
35240;DHT22;21376;50.954;4.716;2023-07-13T14:51:43;25.50;99.90
35240;DHT22;21376;50.954;4.716;2023-07-13T14:54:14;25.40;99.90
35240;DHT22;21376;50.954;4.716;2023-07-13T14:56:49;25.10;99.90
35240;DHT22;21376;50.954;4.716;2023-07-13T14:59:19;25.20;99.90
35240;DHT22;21376;50.954;4.716;2023-07-13T15:04:21;25.40;99.90
35240;DHT22;21376;50.954;4.716;2023-07-13T15:09:27;25.30;99.90
35240;DHT22;21376;50.954;4.716;2023-07-13T15:11:55;25.40;99.90
35240;DHT22;21376;50.954;4.716;2023-07-13T15:14:24;25.50;99.90
35240;DHT22;21376;50.954;4.716;2023-07-13T15:19:23;25.00;99.90
35240;DHT22;21376;50.954;4.716;2023-07-13T15:21:50;24.90;99.90
35240;DHT22;21376;50.954;4.716;2023-07-13T15:24:17;24.70;99.90
35240;DHT22;21376;50.954;4.716;2023-07-13T15:26:43;24.60;99.90
35240;DHT22;21376;50.954;4.716;2023-07-13T15:29:11;24.40;99.90
35240;DHT22;21376;50.954;4.716;2023-07-13T15:31:38;24.50;99.90
35240;DHT22;21376;50.954;4.716;2023-07-13T15:34:16;24.50;99.90
35240;DHT22;21376;50.954;4.716;2023-07-13T15:39:17;24.90;99.90
35240;DHT22;21376;50.954;4.716;2023-07-13T15:41:44;25.10;99.90
35240;DHT22;21376;50.954;4.716;2023-07-13T15:44:26;25.00;99.90
35240;DHT22;21376;50.954;4.716;2023-07-13T15:46:53;24.90;99.90
35240;DHT22;21376;50.954;4.716;2023-07-13T15:49:21;25.10;99.90
35240;DHT22;21376;50.954;4.716;2023-07-13T15:57:48;25.10;99.90
35240;DHT22;21376;50.954;4.716;2023-07-13T16:00:19;24.70;99.90
35240;DHT22;21376;50.954;4.716;2023-07-13T16:02:46;24.60;99.90
35240;DHT22;21376;50.954;4.716;2023-07-13T16:05:14;24.50;99.90
35240;DHT22;21376;50.954;4.716;2023-07-13T16:07:48;24.40;99.90
35240;DHT22;21376;50.954;4.716;2023-07-13T16:13:16;23.80;99.90
35240;DHT22;21376;50.954;4.716;2023-07-13T16:15:46;23.70;99.90
35240;DHT22;21376;50.954;4.716;2023-07-13T16:18:11;23.80;99.90
35240;DHT22;21376;50.954;4.716;2023-07-13T16:20:38;23.70;99.90
35240;DHT22;21376;50.954;4.716;2023-07-13T16:23:04;23.70;99.90
35240;DHT22;21376;50.954;4.716;2023-07-13T16:25:31;23.90;99.90
35240;DHT22;21376;50.954;4.716;2023-07-13T16:27:58;24.40;99.90
35240;DHT22;21376;50.954;4.716;2023-07-13T16:30:27;24.70;99.90
35240;DHT22;21376;50.954;4.716;2023-07-13T16:33:02;24.70;99.90
35240;DHT22;21376;50.954;4.716;2023-07-13T16:35:30;24.90;99.90
35240;DHT22;21376;50.954;4.716;2023-07-13T16:38:01;25.00;99.90
35240;DHT22;21376;50.954;4.716;2023-07-13T16:40:29;25.20;99.90
35240;DHT22;21376;50.954;4.716;2023-07-13T16:42:56;25.40;99.90
35240;DHT22;21376;50.954;4.716;2023-07-13T16:45:23;25.50;99.90
35240;DHT22;21376;50.954;4.716;2023-07-13T16:47:54;25.30;99.90
35240;DHT22;21376;50.954;4.716;2023-07-13T16:50:22;25.00;99.90
35240;DHT22;21376;50.954;4.716;2023-07-13T16:52:50;24.60;99.90
35240;DHT22;21376;50.954;4.716;2023-07-13T16:55:16;24.60;99.90
35240;DHT22;21376;50.954;4.716;2023-07-13T16:57:44;24.60;99.90
35240;DHT22;21376;50.954;4.716;2023-07-13T17:02:42;25.10;99.90
35240;DHT22;21376;50.954;4.716;2023-07-13T17:05:10;25.30;99.90
35240;DHT22;21376;50.954;4.716;2023-07-13T17:07:37;25.50;99.90
35240;DHT22;21376;50.954;4.716;2023-07-13T17:10:05;25.40;99.90
35240;DHT22;21376;50.954;4.716;2023-07-13T17:12:32;25.10;99.90
35240;DHT22;21376;50.954;4.716;2023-07-13T17:15:00;24.90;99.90
35240;DHT22;21376;50.954;4.716;2023-07-13T17:17:29;24.70;99.90
35240;DHT22;21376;50.954;4.716;2023-07-13T17:19:59;24.50;99.90
35240;DHT22;21376;50.954;4.716;2023-07-13T17:22:26;24.40;99.90
35240;DHT22;21376;50.954;4.716;2023-07-13T17:24:57;24.60;99.90
35240;DHT22;21376;50.954;4.716;2023-07-13T17:27:28;24.80;99.90
35240;DHT22;21376;50.954;4.716;2023-07-13T17:29:55;24.80;99.90
35240;DHT22;21376;50.954;4.716;2023-07-13T17:32:29;25.00;99.90
35240;DHT22;21376;50.954;4.716;2023-07-13T17:34:54;25.10;99.90
35240;DHT22;21376;50.954;4.716;2023-07-13T17:37:22;25.10;99.90
35240;DHT22;21376;50.954;4.716;2023-07-13T17:39:51;24.90;99.90
35240;DHT22;21376;50.954;4.716;2023-07-13T17:42:16;24.70;99.90
35240;DHT22;21376;50.954;4.716;2023-07-13T17:44:45;24.60;99.90
35240;DHT22;21376;50.954;4.716;2023-07-13T17:47:44;24.60;99.90
35240;DHT22;21376;50.954;4.716;2023-07-13T17:50:21;24.70;99.90
35240;DHT22;21376;50.954;4.716;2023-07-13T17:52:48;24.50;99.90
35240;DHT22;21376;50.954;4.716;2023-07-13T17:55:15;24.50;99.90
35240;DHT22;21376;50.954;4.716;2023-07-13T17:57:43;24.50;99.90
35240;DHT22;21376;50.954;4.716;2023-07-13T18:00:10;24.60;99.90
35240;DHT22;21376;50.954;4.716;2023-07-13T18:03:01;24.70;99.90
35240;DHT22;21376;50.954;4.716;2023-07-13T18:05:30;24.60;99.90
35240;DHT22;21376;50.954;4.716;2023-07-13T18:07:58;24.60;99.90
35240;DHT22;21376;50.954;4.716;2023-07-13T18:10:31;24.60;99.90
35240;DHT22;21376;50.954;4.716;2023-07-13T18:15:28;24.40;99.90
35240;DHT22;21376;50.954;4.716;2023-07-13T18:17:58;24.40;99.90
35240;DHT22;21376;50.954;4.716;2023-07-13T18:20:27;24.40;99.90
35240;DHT22;21376;50.954;4.716;2023-07-13T18:23:00;24.30;99.90
35240;DHT22;21376;50.954;4.716;2023-07-13T18:30:23;24.30;99.90
35240;DHT22;21376;50.954;4.716;2023-07-13T18:32:53;24.30;99.90
35240;DHT22;21376;50.954;4.716;2023-07-13T18:35:34;24.20;99.90
35240;DHT22;21376;50.954;4.716;2023-07-13T18:38:01;24.20;99.90
35240;DHT22;21376;50.954;4.716;2023-07-13T18:42:59;24.10;99.90
35240;DHT22;21376;50.954;4.716;2023-07-13T18:45:31;24.20;99.90
35240;DHT22;21376;50.954;4.716;2023-07-13T18:47:59;24.10;99.90
35240;DHT22;21376;50.954;4.716;2023-07-13T18:55:46;23.40;99.90
35240;DHT22;21376;50.954;4.716;2023-07-13T19:00:43;23.20;99.90
35240;DHT22;21376;50.954;4.716;2023-07-13T19:05:41;23.00;99.90
35240;DHT22;21376;50.954;4.716;2023-07-13T19:08:19;22.80;99.90
35240;DHT22;21376;50.954;4.716;2023-07-13T19:13:19;22.60;99.90
35240;DHT22;21376;50.954;4.716;2023-07-13T19:15:49;22.50;99.90
35240;DHT22;21376;50.954;4.716;2023-07-13T19:20:44;22.40;99.90
35240;DHT22;21376;50.954;4.716;2023-07-13T19:23:30;22.20;99.90
35240;DHT22;21376;50.954;4.716;2023-07-13T19:26:02;22.10;99.90
35240;DHT22;21376;50.954;4.716;2023-07-13T19:28:37;22.00;99.90
35240;DHT22;21376;50.954;4.716;2023-07-13T19:31:05;22.10;99.90
35240;DHT22;21376;50.954;4.716;2023-07-13T19:36:02;22.00;99.90
35240;DHT22;21376;50.954;4.716;2023-07-13T19:38:28;22.00;99.90
35240;DHT22;21376;50.954;4.716;2023-07-13T19:43:27;22.00;99.90
35240;DHT22;21376;50.954;4.716;2023-07-13T19:48:29;22.00;99.90
35240;DHT22;21376;50.954;4.716;2023-07-13T19:50:58;22.00;99.90
35240;DHT22;21376;50.954;4.716;2023-07-13T19:55:56;21.90;99.90
35240;DHT22;21376;50.954;4.716;2023-07-13T20:03:27;21.70;99.90